Time;durP1;ratioP1;P1;durP2;ratioP2;P2;SDS_P1;SDS_P2;PMS_P1;PMS_P2;Temp;Humidity;BMP_temperature;BMP_pressure;BME280_temperature;BME280_humidity;BME280_pressure;Samples;Min_cycle;Max_cycle;Signal;HPM_P1;HPM_P2
2022/11/08 00:03:44;;;;;;;4.57;1.40;;;9.30;96.30;;;;;;4915711;29;20407;-74
2022/11/08 00:14:21;;;;;;;3.17;1.37;;;9.10;96.30;;;;;;4915569;29;20415;-75
2022/11/08 00:16:47;;;;;;;5.90;1.20;;;9.00;96.30;;;;;;4914604;29;20424;-75
2022/11/08 00:19:12;;;;;;;6.20;1.30;;;9.00;96.30;;;;;;4915319;29;20544;-74
2022/11/08 00:21:38;;;;;;;1.97;1.20;;;9.10;96.30;;;;;;4915425;29;20207;-75
2022/11/08 00:24:03;;;;;;;2.40;1.20;;;9.10;96.30;;;;;;4915147;29;20177;-74
2022/11/08 00:26:29;;;;;;;9.17;1.87;;;9.00;96.30;;;;;;4915244;29;20632;-74
2022/11/08 00:28:55;;;;;;;4.57;1.63;;;9.00;96.30;;;;;;4914545;29;20636;-75
2022/11/08 00:31:20;;;;;;;4.47;1.40;;;9.00;96.30;;;;;;4915195;29;20207;-74
2022/11/08 00:33:46;;;;;;;3.63;1.33;;;9.00;96.30;;;;;;4918505;29;20724;-74
2022/11/08 00:36:11;;;;;;;6.20;1.50;;;9.00;96.30;;;;;;4918407;29;20259;-75
2022/11/08 00:38:41;;;;;;;3.80;1.20;;;8.90;96.30;;;;;;4917989;29;20218;-74
2022/11/08 00:41:06;;;;;;;5.43;1.60;;;8.80;96.30;;;;;;4918234;29;20216;-74
2022/11/08 00:43:32;;;;;;;6.33;1.63;;;8.90;96.30;;;;;;4918440;29;20460;-74
2022/11/08 00:45:57;;;;;;;7.93;1.20;;;8.90;96.30;;;;;;4901357;29;20543;-74
2022/11/08 00:48:23;;;;;;;3.37;1.10;;;8.90;96.30;;;;;;4900704;29;20206;-75
2022/11/08 00:50:48;;;;;;;3.00;1.10;;;8.90;96.30;;;;;;4918172;29;20204;-74
2022/11/08 00:53:14;;;;;;;3.60;1.40;;;8.90;96.30;;;;;;4918166;29;20208;-74
2022/11/08 00:55:39;;;;;;;3.77;1.50;;;8.90;96.30;;;;;;4917119;29;20184;-74
2022/11/08 00:58:05;;;;;;;7.80;1.40;;;8.80;96.30;;;;;;4917224;29;20228;-74
2022/11/08 05:02:29;;;;;;;3.27;2.97;;;7.50;96.30;;;;;;4946341;23;20539;-71
2022/11/08 05:04:56;;;;;;;3.80;1.60;;;7.40;96.30;;;;;;4917745;29;20408;-72
2022/11/08 05:07:22;;;;;;;5.03;1.23;;;7.40;96.30;;;;;;4917575;29;20648;-72
2022/11/08 05:09:47;;;;;;;2.47;1.93;;;7.50;96.30;;;;;;4917667;29;20478;-72
2022/11/08 05:12:13;;;;;;;7.40;4.00;;;7.50;96.30;;;;;;4934508;29;20196;-72
2022/11/08 05:14:38;;;;;;;7.43;5.40;;;7.40;96.30;;;;;;4938248;29;20191;-72
2022/11/08 05:17:04;;;;;;;8.60;4.10;;;7.50;96.30;;;;;;4938987;29;20215;-73
2022/11/08 05:24:49;;;;;;;4.50;2.97;;;7.80;96.30;;;;;;4999641;23;20492;-73
2022/11/08 05:27:14;;;;;;;17.00;9.87;;;7.90;96.30;;;;;;4917882;29;20492;-73
2022/11/08 05:29:40;;;;;;;28.83;19.53;;;8.00;96.30;;;;;;4924059;29;20204;-73
2022/11/08 05:32:05;;;;;;;25.40;19.73;;;8.00;96.30;;;;;;4919108;29;20201;-73
2022/11/08 05:34:31;;;;;;;9.07;6.00;;;8.00;96.30;;;;;;4917465;29;20259;-73
2022/11/08 05:36:56;;;;;;;6.20;3.97;;;7.90;96.30;;;;;;4917512;29;20184;-73
2022/11/08 05:39:22;;;;;;;5.53;3.70;;;8.00;96.30;;;;;;4913276;29;20272;-73
2022/11/08 06:05:52;;;;;;;4.70;2.87;;;7.20;96.30;;;;;;4918137;29;20388;-73
2022/11/08 06:08:18;;;;;;;11.33;6.23;;;7.00;96.30;;;;;;4917769;29;20452;-73
2022/11/08 06:10:43;;;;;;;12.33;5.03;;;6.80;96.30;;;;;;4917264;29;20703;-73
2022/11/08 06:13:09;;;;;;;4.07;2.40;;;6.60;96.30;;;;;;4913586;29;20589;-73
2022/11/08 06:15:34;;;;;;;6.03;2.93;;;6.50;96.30;;;;;;4913140;29;20614;-72
2022/11/08 06:18:02;;;;;;;3.50;2.07;;;6.40;96.30;;;;;;4918678;29;20490;-72
2022/11/08 09:35:33;;;;;;;4.93;1.67;;;12.70;96.30;;;;;;4933400;23;20487;-73
2022/11/08 09:37:58;;;;;;;1.77;1.10;;;12.80;96.30;;;;;;4915931;29;20439;-74
2022/11/08 10:36:12;;;;;;;3.63;1.00;;;17.70;96.30;;;;;;4737131;30;20484;-73
2022/11/08 10:38:53;;;;;;;1.30;0.80;;;17.90;96.30;;;;;;4704106;30;20488;-73
2022/11/08 10:41:41;;;;;;;2.63;1.00;;;17.90;96.30;;;;;;4835179;29;20505;-73
2022/11/08 10:44:14;;;;;;;2.07;0.90;;;17.50;96.30;;;;;;4904932;29;20421;-74
2022/11/08 10:46:56;;;;;;;4.33;1.17;;;17.50;96.30;;;;;;4903221;29;20504;-73
2022/11/08 10:49:24;;;;;;;2.43;1.00;;;17.80;96.30;;;;;;4903050;29;20473;-73
2022/11/08 10:51:59;;;;;;;2.70;0.93;;;17.30;96.30;;;;;;4902341;29;20445;-73
2022/11/08 10:54:53;;;;;;;3.73;0.97;;;17.10;96.30;;;;;;4902598;29;20440;-72
2022/11/08 10:57:31;;;;;;;1.83;1.13;;;17.10;96.30;;;;;;4902948;29;21006;-72
2022/11/08 11:00:17;;;;;;;1.97;1.10;;;16.70;96.30;;;;;;4898929;29;20428;-72
2022/11/08 11:02:44;;;;;;;3.03;1.20;;;16.40;96.30;;;;;;4897328;29;20464;-72
2022/11/08 11:05:16;;;;;;;2.10;1.40;;;16.20;96.30;;;;;;4897385;29;20417;-73
2022/11/08 11:08:05;;;;;;;2.00;1.40;;;16.30;96.30;;;;;;4897109;29;20433;-72
2022/11/08 12:02:48;;;;;;;3.03;1.80;;;15.90;96.30;;;;;;5466635;23;20480;-73
2022/11/08 12:05:32;;;;;;;3.07;1.30;;;15.70;96.30;;;;;;4915442;29;20897;-73
2022/11/08 12:08:08;;;;;;;2.40;1.30;;;15.70;96.30;;;;;;4915254;29;20422;-73
2022/11/08 13:39:45;;;;;;;4.90;2.10;;;15.40;96.30;;;;;;5263811;24;20850;-73
